createdAt,value
2023-07-25T00:03:26.860Z,16.90
2023-07-25T00:08:29.620Z,17.00
2023-07-25T00:13:32.552Z,17.00
2023-07-25T00:18:35.755Z,17.00
2023-07-25T00:23:38.501Z,17.00
2023-07-25T00:28:41.279Z,16.90
2023-07-25T00:33:44.016Z,16.90
2023-07-25T00:38:46.632Z,16.90
2023-07-25T00:43:49.420Z,16.90
2023-07-25T00:48:52.386Z,16.90
2023-07-25T00:53:55.747Z,16.80
2023-07-25T00:58:58.571Z,16.80
2023-07-25T01:04:01.664Z,16.90
2023-07-25T01:09:04.702Z,16.80
2023-07-25T01:14:07.698Z,16.80
2023-07-25T01:19:12.487Z,16.70
2023-07-25T01:24:15.287Z,16.70
2023-07-25T01:29:18.007Z,16.70
2023-07-25T01:34:20.715Z,16.70
2023-07-25T01:39:23.375Z,16.60
2023-07-25T01:44:26.264Z,16.70
2023-07-25T01:49:28.965Z,16.60
2023-07-25T01:54:31.827Z,16.60
2023-07-25T01:59:34.534Z,16.60
2023-07-25T02:04:37.177Z,16.50
2023-07-25T02:09:39.883Z,16.60
2023-07-25T02:14:42.732Z,16.50
2023-07-25T02:19:45.345Z,16.50
2023-07-25T02:24:48.068Z,16.50
2023-07-25T02:29:50.685Z,16.60
2023-07-25T02:34:53.328Z,16.60
2023-07-25T02:39:56.100Z,16.50
2023-07-25T02:44:58.904Z,16.50
2023-07-25T02:50:01.563Z,16.40
2023-07-25T02:55:06.655Z,16.40
2023-07-25T03:00:09.737Z,16.40
2023-07-25T03:05:12.600Z,16.30
2023-07-25T03:10:15.425Z,16.30
2023-07-25T03:15:18.074Z,16.30
2023-07-25T03:20:20.832Z,16.30
2023-07-25T03:25:23.755Z,16.30
2023-07-25T03:30:26.572Z,16.30
2023-07-25T03:35:29.262Z,16.30
2023-07-25T03:40:31.891Z,16.40
2023-07-25T03:45:34.864Z,16.50
2023-07-25T03:50:37.674Z,16.50
2023-07-25T03:55:40.549Z,16.50
2023-07-25T04:00:43.475Z,16.50
2023-07-25T04:05:46.317Z,16.50
2023-07-25T04:10:49.183Z,16.50
2023-07-25T04:15:52.094Z,16.50
2023-07-25T04:20:55.177Z,16.70
2023-07-25T04:25:57.848Z,16.90
2023-07-25T04:31:00.598Z,17.00
2023-07-25T04:36:03.389Z,17.20
2023-07-25T04:41:06.070Z,17.30
2023-07-25T04:46:08.870Z,17.50
2023-07-25T04:51:11.730Z,17.50
2023-07-25T04:56:14.630Z,17.50
2023-07-25T05:01:17.908Z,17.50
2023-07-25T05:06:21.863Z,17.60
2023-07-25T05:11:24.571Z,17.80
2023-07-25T05:16:27.457Z,17.90
2023-07-25T05:21:30.506Z,18.60
2023-07-25T05:26:33.662Z,19.00
2023-07-25T05:31:36.724Z,19.30
2023-07-25T05:36:39.668Z,19.60
2023-07-25T05:41:44.229Z,20.10
2023-07-25T05:46:46.928Z,20.60
2023-07-25T05:51:49.931Z,20.90
2023-07-25T05:56:52.751Z,20.90
2023-07-25T06:01:55.606Z,20.60
2023-07-25T06:06:58.328Z,21.20
2023-07-25T06:12:01.155Z,21.50
2023-07-25T06:17:04.653Z,21.20
2023-07-25T06:22:07.813Z,21.20
2023-07-25T06:27:10.691Z,21.40
2023-07-25T06:32:13.697Z,21.20
2023-07-25T06:37:16.392Z,21.30
2023-07-25T06:42:19.109Z,21.70
2023-07-25T06:47:25.106Z,22.40
2023-07-25T06:52:28.093Z,23.00
2023-07-25T06:57:30.889Z,23.50
2023-07-25T07:02:33.942Z,23.90
2023-07-25T07:07:36.787Z,24.20
2023-07-25T07:12:46.964Z,24.60
2023-07-25T07:17:49.678Z,24.60
2023-07-25T07:22:52.331Z,24.60
2023-07-25T07:27:55.029Z,24.70
2023-07-25T07:32:58.295Z,24.70
2023-07-25T07:38:01.156Z,25.10
2023-07-25T07:43:04.171Z,24.60
2023-07-25T07:48:06.942Z,24.30
2023-07-25T07:53:10.406Z,25.40
2023-07-25T07:58:13.141Z,25.30
2023-07-25T08:03:15.960Z,24.70
2023-07-25T08:08:18.785Z,24.60
2023-07-25T08:13:21.560Z,25.10
2023-07-25T08:18:24.900Z,25.60
2023-07-25T08:23:28.109Z,26.50
2023-07-25T08:28:30.968Z,27.20
2023-07-25T08:33:36.086Z,26.90
2023-07-25T08:38:39.372Z,28.00
2023-07-25T08:43:43.653Z,26.90
2023-07-25T08:48:49.267Z,27.70
2023-07-25T08:54:04.059Z,27.70
2023-07-25T08:59:07.692Z,27.40
2023-07-25T09:04:12.173Z,27.70
2023-07-25T09:09:15.313Z,28.10
2023-07-25T09:14:17.992Z,28.20
2023-07-25T09:19:21.047Z,27.70
2023-07-25T09:24:23.938Z,27.80
2023-07-25T09:29:29.972Z,28.50
2023-07-25T09:34:33.529Z,28.20
2023-07-25T09:39:38.355Z,28.30
2023-07-25T09:44:50.015Z,28.50
2023-07-25T09:49:54.801Z,28.20
2023-07-25T09:54:57.918Z,28.40
2023-07-25T10:00:02.579Z,28.20
2023-07-25T10:05:08.825Z,28.20
2023-07-25T10:10:12.884Z,28.20
2023-07-25T10:15:16.076Z,28.50
2023-07-25T10:20:26.080Z,28.10
2023-07-25T10:25:29.497Z,28.50
2023-07-25T10:30:34.597Z,28.50
2023-07-25T10:35:46.380Z,28.20
2023-07-25T10:41:10.806Z,28.40
2023-07-25T10:46:19.240Z,28.20
2023-07-25T10:51:23.081Z,27.90
2023-07-25T10:56:25.864Z,27.50
2023-07-25T11:01:39.464Z,27.20
2023-07-25T11:06:42.342Z,27.00
2023-07-25T11:11:46.877Z,27.20
2023-07-25T11:16:54.344Z,27.10
2023-07-25T11:21:57.444Z,26.80
2023-07-25T11:27:04.000Z,26.80
2023-07-25T11:32:07.258Z,26.30
2023-07-25T11:37:11.994Z,26.00
2023-07-25T11:42:15.900Z,25.70
2023-07-25T11:53:22.626Z,25.40
2023-07-25T11:58:25.605Z,25.00
2023-07-25T12:03:28.732Z,25.00
2023-07-25T12:08:42.001Z,25.00
2023-07-25T12:13:50.519Z,24.90
2023-07-25T12:18:56.421Z,25.10
2023-07-25T12:24:05.821Z,25.30
2023-07-25T12:29:17.329Z,25.30
2023-07-25T12:34:22.151Z,25.30
2023-07-25T12:39:25.416Z,25.10
2023-07-25T12:44:28.369Z,24.60
2023-07-25T12:49:34.245Z,24.30
2023-07-25T12:54:40.326Z,23.60
2023-07-25T12:59:43.680Z,23.10
2023-07-25T13:04:46.740Z,22.70
2023-07-25T13:09:50.209Z,22.50
2023-07-25T13:14:53.177Z,22.20
2023-07-25T13:19:56.494Z,21.90
2023-07-25T13:24:59.827Z,21.50
2023-07-25T13:30:03.112Z,21.10
2023-07-25T13:35:07.440Z,20.80
2023-07-25T13:40:11.135Z,20.50
2023-07-25T13:45:14.252Z,20.50
2023-07-25T13:50:17.667Z,20.30
2023-07-25T13:55:20.729Z,20.10
2023-07-25T14:00:23.795Z,20.10
2023-07-25T14:05:26.708Z,20.00
2023-07-25T14:10:29.792Z,19.80
2023-07-25T14:15:33.737Z,19.70
2023-07-25T14:20:39.584Z,19.40
2023-07-25T14:25:43.009Z,19.10
2023-07-25T14:30:48.642Z,18.60
2023-07-25T14:35:51.627Z,18.40
2023-07-25T14:40:55.035Z,18.20
2023-07-25T14:45:57.924Z,18.10
2023-07-25T14:51:01.308Z,18.20
2023-07-25T14:56:04.360Z,18.20
2023-07-25T15:01:07.427Z,18.30
2023-07-25T15:06:10.796Z,18.30
2023-07-25T15:11:13.894Z,18.50
2023-07-25T15:16:17.041Z,18.40
2023-07-25T15:21:20.212Z,18.50
2023-07-25T15:26:23.179Z,18.70
2023-07-25T15:31:26.250Z,18.70
2023-07-25T15:36:29.375Z,18.80
2023-07-25T15:41:32.655Z,18.70
2023-07-25T15:46:35.958Z,18.50
2023-07-25T15:51:39.674Z,18.40
2023-07-25T15:56:43.756Z,18.30
2023-07-25T16:01:47.330Z,18.20
2023-07-25T16:06:50.353Z,18.10
2023-07-25T16:11:53.468Z,17.90
2023-07-25T16:16:56.465Z,17.90
2023-07-25T16:21:59.531Z,17.80
2023-07-25T16:27:02.571Z,17.80
2023-07-25T16:32:05.958Z,17.80
2023-07-25T16:37:09.051Z,17.80
2023-07-25T16:42:13.605Z,17.80
2023-07-25T16:47:18.024Z,17.80
2023-07-25T16:52:21.113Z,17.80
2023-07-25T16:57:24.122Z,17.80
2023-07-25T17:02:27.612Z,17.80
2023-07-25T17:07:31.316Z,17.90
2023-07-25T17:12:34.665Z,17.90
2023-07-25T17:17:38.228Z,18.10
2023-07-25T17:22:42.120Z,18.20
2023-07-25T17:27:45.060Z,18.20
2023-07-25T17:32:48.703Z,18.30
2023-07-25T17:37:51.647Z,18.30
2023-07-25T17:42:54.640Z,18.20
2023-07-25T17:47:57.853Z,18.20
2023-07-25T17:53:01.013Z,18.10
2023-07-25T17:58:03.986Z,18.10
2023-07-25T18:03:08.147Z,18.00
2023-07-25T18:08:11.412Z,17.90
2023-07-25T18:13:14.850Z,17.90
2023-07-25T18:18:19.984Z,17.80
2023-07-25T18:23:23.499Z,17.70
2023-07-25T18:28:27.200Z,17.80
2023-07-25T18:33:30.165Z,17.60
2023-07-25T18:38:33.090Z,17.60
2023-07-25T18:43:36.054Z,17.60
2023-07-25T18:48:39.017Z,17.50
2023-07-25T18:53:43.978Z,17.50
2023-07-25T18:58:47.033Z,17.50
2023-07-25T19:03:50.175Z,17.40
2023-07-25T19:08:54.636Z,17.40
2023-07-25T19:13:57.716Z,17.40
2023-07-25T19:19:01.280Z,17.30
2023-07-25T19:24:04.631Z,17.30
2023-07-25T19:29:07.711Z,17.30
2023-07-25T19:34:10.792Z,17.20
2023-07-25T19:39:14.111Z,17.20
2023-07-25T19:44:17.761Z,17.00
2023-07-25T19:49:21.992Z,16.80
2023-07-25T19:54:25.333Z,16.70
2023-07-25T19:59:28.853Z,16.60
2023-07-25T20:04:31.907Z,16.30
2023-07-25T20:09:35.088Z,16.10
2023-07-25T20:14:38.073Z,15.90
2023-07-25T20:19:41.145Z,15.70
2023-07-25T20:24:44.323Z,15.60
2023-07-25T20:29:47.308Z,15.50
2023-07-25T20:34:50.326Z,15.30
2023-07-25T20:39:54.219Z,15.30
2023-07-25T20:44:57.203Z,15.20
2023-07-25T20:50:00.282Z,15.10
2023-07-25T20:55:03.846Z,15.00
2023-07-25T21:00:08.099Z,14.90
2023-07-25T21:05:11.279Z,14.90
2023-07-25T21:10:14.465Z,14.80
2023-07-25T21:15:17.525Z,14.80
2023-07-25T21:20:20.554Z,14.70
2023-07-25T21:25:24.533Z,14.80
2023-07-25T21:30:27.517Z,14.60
2023-07-25T21:35:30.596Z,14.60
2023-07-25T21:40:33.666Z,14.60
2023-07-25T21:45:36.814Z,14.40
2023-07-25T21:50:39.748Z,14.40
2023-07-25T21:55:42.982Z,14.40
2023-07-25T22:00:46.028Z,14.40
2023-07-25T22:05:49.121Z,14.40
2023-07-25T22:10:53.730Z,14.30
2023-07-25T22:15:56.852Z,14.20
2023-07-25T22:21:00.498Z,14.20
2023-07-25T22:26:04.520Z,14.20
2023-07-25T22:31:07.901Z,14.20
2023-07-25T22:36:10.971Z,14.20
2023-07-25T22:41:14.013Z,14.30
2023-07-25T22:46:16.974Z,14.20
2023-07-25T22:51:19.948Z,14.30
2023-07-25T22:56:23.101Z,14.20
2023-07-25T23:01:26.201Z,14.10
2023-07-25T23:06:29.162Z,14.10
2023-07-25T23:11:33.606Z,14.10
2023-07-25T23:16:36.561Z,14.00
2023-07-25T23:21:39.468Z,14.00
2023-07-25T23:26:43.121Z,14.10
2023-07-25T23:31:46.454Z,14.00
2023-07-25T23:36:49.540Z,14.10
2023-07-25T23:41:52.575Z,14.00
2023-07-25T23:46:55.711Z,14.10
2023-07-25T23:51:58.647Z,14.10
2023-07-25T23:57:04.725Z,14.20
